sensor_id;sensor_type;location;lat;lon;timestamp;P1;durP1;ratioP1;P2;durP2;ratioP2
66437;SDS011;54537;47.972;11.662;2023-06-26T00:00:44;11.60;;;4.57;;
66437;SDS011;54537;47.972;11.662;2023-06-26T00:03:12;11.90;;;4.65;;
66437;SDS011;54537;47.972;11.662;2023-06-26T00:05:40;12.27;;;5.15;;
66437;SDS011;54537;47.972;11.662;2023-06-26T00:08:06;9.63;;;4.55;;
66437;SDS011;54537;47.972;11.662;2023-06-26T00:10:34;9.63;;;4.30;;
66437;SDS011;54537;47.972;11.662;2023-06-26T00:13:01;11.13;;;4.70;;
66437;SDS011;54537;47.972;11.662;2023-06-26T00:15:28;9.15;;;4.35;;
66437;SDS011;54537;47.972;11.662;2023-06-26T00:17:56;9.23;;;4.60;;
66437;SDS011;54537;47.972;11.662;2023-06-26T00:20:23;11.73;;;4.68;;
66437;SDS011;54537;47.972;11.662;2023-06-26T00:22:50;11.38;;;4.65;;
66437;SDS011;54537;47.972;11.662;2023-06-26T00:25:16;10.73;;;4.95;;
66437;SDS011;54537;47.972;11.662;2023-06-26T00:27:44;9.80;;;4.60;;
66437;SDS011;54537;47.972;11.662;2023-06-26T00:30:11;10.32;;;4.63;;
66437;SDS011;54537;47.972;11.662;2023-06-26T00:32:38;11.15;;;5.10;;
66437;SDS011;54537;47.972;11.662;2023-06-26T00:35:04;9.73;;;4.63;;
66437;SDS011;54537;47.972;11.662;2023-06-26T00:37:31;10.18;;;4.65;;
66437;SDS011;54537;47.972;11.662;2023-06-26T00:39:57;11.02;;;5.00;;
66437;SDS011;54537;47.972;11.662;2023-06-26T00:42:24;9.88;;;4.85;;
66437;SDS011;54537;47.972;11.662;2023-06-26T00:44:52;9.93;;;4.85;;
66437;SDS011;54537;47.972;11.662;2023-06-26T00:47:18;11.50;;;5.07;;
66437;SDS011;54537;47.972;11.662;2023-06-26T00:49:45;9.35;;;4.63;;
66437;SDS011;54537;47.972;11.662;2023-06-26T00:52:11;11.40;;;5.10;;
66437;SDS011;54537;47.972;11.662;2023-06-26T00:54:38;10.27;;;4.65;;
66437;SDS011;54537;47.972;11.662;2023-06-26T00:57:05;10.23;;;5.00;;
66437;SDS011;54537;47.972;11.662;2023-06-26T00:59:31;10.63;;;4.82;;
66437;SDS011;54537;47.972;11.662;2023-06-26T01:01:59;12.40;;;5.03;;
66437;SDS011;54537;47.972;11.662;2023-06-26T01:04:25;13.23;;;4.93;;
66437;SDS011;54537;47.972;11.662;2023-06-26T01:06:52;11.07;;;5.00;;
66437;SDS011;54537;47.972;11.662;2023-06-26T01:09:20;12.57;;;5.18;;
66437;SDS011;54537;47.972;11.662;2023-06-26T01:11:48;12.55;;;4.75;;
66437;SDS011;54537;47.972;11.662;2023-06-26T01:14:15;8.85;;;4.40;;
66437;SDS011;54537;47.972;11.662;2023-06-26T01:16:41;10.60;;;4.72;;
66437;SDS011;54537;47.972;11.662;2023-06-26T01:19:15;10.95;;;5.40;;
66437;SDS011;54537;47.972;11.662;2023-06-26T01:21:50;11.77;;;5.25;;
66437;SDS011;54537;47.972;11.662;2023-06-26T01:24:18;9.23;;;4.18;;
66437;SDS011;54537;47.972;11.662;2023-06-26T01:26:47;10.50;;;4.95;;
66437;SDS011;54537;47.972;11.662;2023-06-26T01:29:15;11.00;;;4.88;;
66437;SDS011;54537;47.972;11.662;2023-06-26T01:31:43;10.07;;;4.82;;
66437;SDS011;54537;47.972;11.662;2023-06-26T01:34:11;10.63;;;5.25;;
66437;SDS011;54537;47.972;11.662;2023-06-26T01:36:38;10.15;;;4.88;;
66437;SDS011;54537;47.972;11.662;2023-06-26T01:39:04;10.25;;;4.68;;
66437;SDS011;54537;47.972;11.662;2023-06-26T01:41:31;11.57;;;4.85;;
66437;SDS011;54537;47.972;11.662;2023-06-26T01:44:01;11.88;;;5.55;;
66437;SDS011;54537;47.972;11.662;2023-06-26T01:46:34;10.82;;;4.95;;
66437;SDS011;54537;47.972;11.662;2023-06-26T01:49:05;11.05;;;4.93;;
66437;SDS011;54537;47.972;11.662;2023-06-26T01:51:35;13.30;;;5.45;;
66437;SDS011;54537;47.972;11.662;2023-06-26T01:54:04;12.02;;;5.15;;
66437;SDS011;54537;47.972;11.662;2023-06-26T01:56:31;10.93;;;4.97;;
66437;SDS011;54537;47.972;11.662;2023-06-26T01:58:58;12.38;;;5.63;;
66437;SDS011;54537;47.972;11.662;2023-06-26T02:01:27;11.00;;;4.88;;
66437;SDS011;54537;47.972;11.662;2023-06-26T02:03:54;11.80;;;4.97;;
66437;SDS011;54537;47.972;11.662;2023-06-26T02:06:20;12.73;;;5.38;;
66437;SDS011;54537;47.972;11.662;2023-06-26T02:08:47;11.93;;;5.22;;
66437;SDS011;54537;47.972;11.662;2023-06-26T02:11:13;11.90;;;5.13;;
66437;SDS011;54537;47.972;11.662;2023-06-26T02:13:40;11.65;;;5.13;;
66437;SDS011;54537;47.972;11.662;2023-06-26T02:16:07;9.57;;;4.82;;
66437;SDS011;54537;47.972;11.662;2023-06-26T02:18:34;11.18;;;4.93;;
66437;SDS011;54537;47.972;11.662;2023-06-26T02:21:02;10.90;;;4.88;;
66437;SDS011;54537;47.972;11.662;2023-06-26T02:23:29;11.05;;;4.72;;
66437;SDS011;54537;47.972;11.662;2023-06-26T02:25:55;12.10;;;5.22;;
66437;SDS011;54537;47.972;11.662;2023-06-26T02:28:22;11.88;;;4.88;;
66437;SDS011;54537;47.972;11.662;2023-06-26T02:30:48;13.93;;;5.15;;
66437;SDS011;54537;47.972;11.662;2023-06-26T02:33:16;11.18;;;5.20;;
66437;SDS011;54537;47.972;11.662;2023-06-26T02:35:43;13.52;;;5.32;;
66437;SDS011;54537;47.972;11.662;2023-06-26T02:38:09;13.48;;;5.25;;
66437;SDS011;54537;47.972;11.662;2023-06-26T02:40:38;13.07;;;5.28;;
66437;SDS011;54537;47.972;11.662;2023-06-26T02:43:04;11.68;;;4.85;;
66437;SDS011;54537;47.972;11.662;2023-06-26T02:45:32;12.15;;;5.65;;
66437;SDS011;54537;47.972;11.662;2023-06-26T02:47:59;13.95;;;5.32;;
66437;SDS011;54537;47.972;11.662;2023-06-26T02:50:26;11.90;;;5.30;;
66437;SDS011;54537;47.972;11.662;2023-06-26T02:52:53;10.25;;;4.78;;
66437;SDS011;54537;47.972;11.662;2023-06-26T02:55:19;9.48;;;4.45;;
66437;SDS011;54537;47.972;11.662;2023-06-26T02:57:46;11.80;;;5.32;;
66437;SDS011;54537;47.972;11.662;2023-06-26T03:00:13;10.98;;;5.28;;
66437;SDS011;54537;47.972;11.662;2023-06-26T03:02:40;9.68;;;4.45;;
66437;SDS011;54537;47.972;11.662;2023-06-26T03:05:06;11.45;;;4.93;;
66437;SDS011;54537;47.972;11.662;2023-06-26T03:07:34;10.32;;;4.70;;
66437;SDS011;54537;47.972;11.662;2023-06-26T03:10:01;12.07;;;5.07;;
66437;SDS011;54537;47.972;11.662;2023-06-26T03:12:27;12.02;;;5.20;;
66437;SDS011;54537;47.972;11.662;2023-06-26T03:14:54;12.85;;;5.20;;
66437;SDS011;54537;47.972;11.662;2023-06-26T03:17:20;12.15;;;5.55;;
66437;SDS011;54537;47.972;11.662;2023-06-26T03:19:47;11.82;;;5.43;;
66437;SDS011;54537;47.972;11.662;2023-06-26T03:22:13;11.43;;;5.25;;
66437;SDS011;54537;47.972;11.662;2023-06-26T03:24:41;13.32;;;5.00;;
66437;SDS011;54537;47.972;11.662;2023-06-26T03:27:08;10.55;;;4.90;;
66437;SDS011;54537;47.972;11.662;2023-06-26T03:29:35;11.35;;;5.00;;
66437;SDS011;54537;47.972;11.662;2023-06-26T03:32:01;10.57;;;4.97;;
66437;SDS011;54537;47.972;11.662;2023-06-26T03:34:28;11.38;;;5.50;;
66437;SDS011;54537;47.972;11.662;2023-06-26T03:36:54;10.30;;;4.93;;
66437;SDS011;54537;47.972;11.662;2023-06-26T03:39:20;10.32;;;5.15;;
66437;SDS011;54537;47.972;11.662;2023-06-26T03:41:48;18.40;;;6.32;;
66437;SDS011;54537;47.972;11.662;2023-06-26T03:44:15;10.35;;;5.00;;
66437;SDS011;54537;47.972;11.662;2023-06-26T03:46:41;11.23;;;5.38;;
66437;SDS011;54537;47.972;11.662;2023-06-26T03:49:08;11.50;;;4.93;;
66437;SDS011;54537;47.972;11.662;2023-06-26T03:51:35;11.65;;;4.95;;
66437;SDS011;54537;47.972;11.662;2023-06-26T03:54:02;12.43;;;5.43;;
66437;SDS011;54537;47.972;11.662;2023-06-26T03:56:29;11.65;;;4.50;;
66437;SDS011;54537;47.972;11.662;2023-06-26T03:58:57;9.82;;;4.60;;
66437;SDS011;54537;47.972;11.662;2023-06-26T04:01:23;10.18;;;4.95;;
66437;SDS011;54537;47.972;11.662;2023-06-26T04:03:49;11.30;;;4.72;;
66437;SDS011;54537;47.972;11.662;2023-06-26T04:06:16;12.38;;;5.43;;
66437;SDS011;54537;47.972;11.662;2023-06-26T04:08:42;11.77;;;5.30;;
66437;SDS011;54537;47.972;11.662;2023-06-26T04:11:09;14.13;;;5.13;;
66437;SDS011;54537;47.972;11.662;2023-06-26T04:13:35;11.55;;;5.22;;
66437;SDS011;54537;47.972;11.662;2023-06-26T04:16:03;15.02;;;5.35;;
66437;SDS011;54537;47.972;11.662;2023-06-26T04:18:31;12.60;;;5.25;;
66437;SDS011;54537;47.972;11.662;2023-06-26T04:21:04;11.45;;;5.10;;
66437;SDS011;54537;47.972;11.662;2023-06-26T04:23:33;11.32;;;5.35;;
66437;SDS011;54537;47.972;11.662;2023-06-26T04:25:59;12.45;;;5.40;;
66437;SDS011;54537;47.972;11.662;2023-06-26T04:28:27;13.60;;;5.72;;
66437;SDS011;54537;47.972;11.662;2023-06-26T04:30:54;12.93;;;5.45;;
66437;SDS011;54537;47.972;11.662;2023-06-26T04:33:21;12.45;;;5.40;;
66437;SDS011;54537;47.972;11.662;2023-06-26T04:35:48;14.38;;;5.97;;
66437;SDS011;54537;47.972;11.662;2023-06-26T04:38:15;12.55;;;5.13;;
66437;SDS011;54537;47.972;11.662;2023-06-26T04:40:41;11.75;;;5.57;;
66437;SDS011;54537;47.972;11.662;2023-06-26T04:43:08;12.05;;;5.78;;
66437;SDS011;54537;47.972;11.662;2023-06-26T04:45:34;10.05;;;5.18;;
66437;SDS011;54537;47.972;11.662;2023-06-26T04:48:01;10.65;;;4.72;;
66437;SDS011;54537;47.972;11.662;2023-06-26T04:50:29;15.48;;;5.32;;
66437;SDS011;54537;47.972;11.662;2023-06-26T04:52:56;12.70;;;5.88;;
66437;SDS011;54537;47.972;11.662;2023-06-26T04:55:23;10.57;;;5.22;;
66437;SDS011;54537;47.972;11.662;2023-06-26T04:57:50;13.75;;;5.65;;
66437;SDS011;54537;47.972;11.662;2023-06-26T05:00:17;13.43;;;5.55;;
66437;SDS011;54537;47.972;11.662;2023-06-26T05:02:44;14.20;;;5.55;;
66437;SDS011;54537;47.972;11.662;2023-06-26T05:05:10;11.45;;;5.28;;
66437;SDS011;54537;47.972;11.662;2023-06-26T05:07:38;12.70;;;5.82;;
66437;SDS011;54537;47.972;11.662;2023-06-26T05:10:05;10.75;;;4.95;;
66437;SDS011;54537;47.972;11.662;2023-06-26T05:12:32;11.98;;;5.05;;
66437;SDS011;54537;47.972;11.662;2023-06-26T05:14:58;10.85;;;5.28;;
66437;SDS011;54537;47.972;11.662;2023-06-26T05:17:26;10.88;;;5.35;;
66437;SDS011;54537;47.972;11.662;2023-06-26T05:19:52;10.73;;;4.90;;
66437;SDS011;54537;47.972;11.662;2023-06-26T05:22:19;10.85;;;4.97;;
66437;SDS011;54537;47.972;11.662;2023-06-26T05:24:47;10.38;;;4.55;;
66437;SDS011;54537;47.972;11.662;2023-06-26T05:27:13;12.07;;;5.10;;
66437;SDS011;54537;47.972;11.662;2023-06-26T05:29:46;12.35;;;5.40;;
66437;SDS011;54537;47.972;11.662;2023-06-26T05:32:14;11.48;;;5.07;;
66437;SDS011;54537;47.972;11.662;2023-06-26T05:34:42;11.77;;;5.35;;
66437;SDS011;54537;47.972;11.662;2023-06-26T05:37:09;14.68;;;5.90;;
66437;SDS011;54537;47.972;11.662;2023-06-26T05:39:36;11.93;;;5.30;;
66437;SDS011;54537;47.972;11.662;2023-06-26T05:42:05;10.55;;;5.28;;
66437;SDS011;54537;47.972;11.662;2023-06-26T05:44:32;12.38;;;4.90;;
66437;SDS011;54537;47.972;11.662;2023-06-26T05:46:59;10.35;;;4.88;;
66437;SDS011;54537;47.972;11.662;2023-06-26T05:49:25;15.40;;;5.93;;
66437;SDS011;54537;47.972;11.662;2023-06-26T05:51:52;10.95;;;5.43;;
66437;SDS011;54537;47.972;11.662;2023-06-26T05:54:19;11.35;;;5.38;;
66437;SDS011;54537;47.972;11.662;2023-06-26T05:56:46;10.68;;;5.07;;
66437;SDS011;54537;47.972;11.662;2023-06-26T05:59:15;11.30;;;5.32;;
66437;SDS011;54537;47.972;11.662;2023-06-26T06:01:43;10.82;;;5.57;;
66437;SDS011;54537;47.972;11.662;2023-06-26T06:04:09;11.98;;;5.43;;
66437;SDS011;54537;47.972;11.662;2023-06-26T06:06:36;10.32;;;5.13;;
66437;SDS011;54537;47.972;11.662;2023-06-26T06:09:02;9.75;;;5.13;;
66437;SDS011;54537;47.972;11.662;2023-06-26T06:11:29;12.82;;;5.65;;
66437;SDS011;54537;47.972;11.662;2023-06-26T06:13:55;10.43;;;5.28;;
66437;SDS011;54537;47.972;11.662;2023-06-26T06:16:25;12.38;;;5.45;;
66437;SDS011;54537;47.972;11.662;2023-06-26T06:18:54;11.18;;;4.75;;
66437;SDS011;54537;47.972;11.662;2023-06-26T06:21:20;11.25;;;5.32;;
66437;SDS011;54537;47.972;11.662;2023-06-26T06:23:47;9.82;;;5.32;;
66437;SDS011;54537;47.972;11.662;2023-06-26T06:26:13;11.98;;;5.60;;
66437;SDS011;54537;47.972;11.662;2023-06-26T06:28:40;9.48;;;4.95;;
66437;SDS011;54537;47.972;11.662;2023-06-26T06:31:06;9.63;;;5.13;;
66437;SDS011;54537;47.972;11.662;2023-06-26T06:33:34;10.95;;;5.65;;
66437;SDS011;54537;47.972;11.662;2023-06-26T06:36:00;11.85;;;5.10;;
66437;SDS011;54537;47.972;11.662;2023-06-26T06:38:27;11.10;;;4.85;;
66437;SDS011;54537;47.972;11.662;2023-06-26T06:40:53;9.10;;;4.95;;
66437;SDS011;54537;47.972;11.662;2023-06-26T06:43:20;11.07;;;5.00;;
66437;SDS011;54537;47.972;11.662;2023-06-26T06:45:46;10.13;;;5.40;;
66437;SDS011;54537;47.972;11.662;2023-06-26T06:48:13;10.02;;;5.30;;
66437;SDS011;54537;47.972;11.662;2023-06-26T06:50:40;8.38;;;4.68;;
66437;SDS011;54537;47.972;11.662;2023-06-26T06:53:07;11.73;;;5.10;;
66437;SDS011;54537;47.972;11.662;2023-06-26T06:55:34;9.65;;;5.25;;
66437;SDS011;54537;47.972;11.662;2023-06-26T06:58:00;9.63;;;4.75;;
66437;SDS011;54537;47.972;11.662;2023-06-26T07:00:27;8.25;;;4.97;;
66437;SDS011;54537;47.972;11.662;2023-06-26T07:02:53;8.35;;;4.88;;
66437;SDS011;54537;47.972;11.662;2023-06-26T07:05:21;10.98;;;4.88;;
66437;SDS011;54537;47.972;11.662;2023-06-26T07:07:49;9.23;;;5.22;;
66437;SDS011;54537;47.972;11.662;2023-06-26T07:10:15;8.38;;;5.20;;
66437;SDS011;54537;47.972;11.662;2023-06-26T07:12:42;8.60;;;4.82;;
66437;SDS011;54537;47.972;11.662;2023-06-26T07:15:09;9.93;;;4.45;;
66437;SDS011;54537;47.972;11.662;2023-06-26T07:17:36;8.80;;;4.95;;
66437;SDS011;54537;47.972;11.662;2023-06-26T07:20:04;8.15;;;4.70;;
66437;SDS011;54537;47.972;11.662;2023-06-26T07:22:33;8.35;;;4.72;;
66437;SDS011;54537;47.972;11.662;2023-06-26T07:25:00;8.48;;;4.93;;
66437;SDS011;54537;47.972;11.662;2023-06-26T07:27:27;8.88;;;4.90;;
66437;SDS011;54537;47.972;11.662;2023-06-26T07:29:53;8.38;;;4.70;;
66437;SDS011;54537;47.972;11.662;2023-06-26T07:32:20;9.32;;;5.00;;
66437;SDS011;54537;47.972;11.662;2023-06-26T07:34:46;9.27;;;5.18;;
66437;SDS011;54537;47.972;11.662;2023-06-26T07:37:13;10.85;;;4.80;;
66437;SDS011;54537;47.972;11.662;2023-06-26T07:39:39;10.38;;;6.20;;
66437;SDS011;54537;47.972;11.662;2023-06-26T07:42:07;11.40;;;5.32;;
66437;SDS011;54537;47.972;11.662;2023-06-26T07:44:34;12.70;;;5.57;;
66437;SDS011;54537;47.972;11.662;2023-06-26T07:47:00;9.55;;;5.22;;
66437;SDS011;54537;47.972;11.662;2023-06-26T07:49:26;10.48;;;5.32;;
66437;SDS011;54537;47.972;11.662;2023-06-26T07:51:53;8.77;;;5.03;;
66437;SDS011;54537;47.972;11.662;2023-06-26T07:54:19;9.55;;;5.47;;
66437;SDS011;54537;47.972;11.662;2023-06-26T07:56:53;10.35;;;5.30;;
66437;SDS011;54537;47.972;11.662;2023-06-26T07:59:22;11.93;;;5.47;;
66437;SDS011;54537;47.972;11.662;2023-06-26T08:01:49;8.77;;;5.28;;
66437;SDS011;54537;47.972;11.662;2023-06-26T08:04:17;8.90;;;5.25;;
66437;SDS011;54537;47.972;11.662;2023-06-26T08:06:43;9.20;;;5.25;;
66437;SDS011;54537;47.972;11.662;2023-06-26T08:09:10;9.57;;;5.30;;
66437;SDS011;54537;47.972;11.662;2023-06-26T08:11:37;9.18;;;5.57;;
66437;SDS011;54537;47.972;11.662;2023-06-26T08:14:04;8.10;;;4.82;;
66437;SDS011;54537;47.972;11.662;2023-06-26T08:16:32;8.45;;;5.38;;
66437;SDS011;54537;47.972;11.662;2023-06-26T08:18:58;9.43;;;4.93;;
66437;SDS011;54537;47.972;11.662;2023-06-26T08:21:25;9.60;;;5.20;;
66437;SDS011;54537;47.972;11.662;2023-06-26T08:23:51;9.95;;;5.50;;
66437;SDS011;54537;47.972;11.662;2023-06-26T08:26:18;9.57;;;4.95;;
66437;SDS011;54537;47.972;11.662;2023-06-26T08:28:44;8.05;;;4.90;;
66437;SDS011;54537;47.972;11.662;2023-06-26T08:31:11;8.30;;;5.30;;
66437;SDS011;54537;47.972;11.662;2023-06-26T08:33:39;7.15;;;4.85;;
66437;SDS011;54537;47.972;11.662;2023-06-26T08:36:06;9.32;;;5.43;;
66437;SDS011;54537;47.972;11.662;2023-06-26T08:38:32;8.70;;;5.07;;
66437;SDS011;54537;47.972;11.662;2023-06-26T08:40:59;8.98;;;4.85;;
66437;SDS011;54537;47.972;11.662;2023-06-26T08:43:25;8.65;;;4.88;;
66437;SDS011;54537;47.972;11.662;2023-06-26T08:45:53;9.43;;;5.00;;
66437;SDS011;54537;47.972;11.662;2023-06-26T08:48:20;7.65;;;4.72;;
66437;SDS011;54537;47.972;11.662;2023-06-26T08:50:48;8.05;;;5.20;;
66437;SDS011;54537;47.972;11.662;2023-06-26T08:53:18;8.80;;;5.05;;
66437;SDS011;54537;47.972;11.662;2023-06-26T08:55:47;8.55;;;5.63;;
66437;SDS011;54537;47.972;11.662;2023-06-26T08:58:15;8.85;;;5.22;;
66437;SDS011;54537;47.972;11.662;2023-06-26T09:00:41;7.43;;;4.50;;
66437;SDS011;54537;47.972;11.662;2023-06-26T09:03:08;10.68;;;5.07;;
66437;SDS011;54537;47.972;11.662;2023-06-26T09:05:35;9.23;;;4.60;;
66437;SDS011;54537;47.972;11.662;2023-06-26T09:08:04;9.35;;;4.72;;
66437;SDS011;54537;47.972;11.662;2023-06-26T09:10:31;9.65;;;4.25;;
66437;SDS011;54537;47.972;11.662;2023-06-26T09:12:57;9.10;;;4.53;;
66437;SDS011;54537;47.972;11.662;2023-06-26T09:15:26;6.45;;;4.10;;
66437;SDS011;54537;47.972;11.662;2023-06-26T09:17:55;7.03;;;4.15;;
66437;SDS011;54537;47.972;11.662;2023-06-26T09:20:22;8.50;;;4.18;;
66437;SDS011;54537;47.972;11.662;2023-06-26T09:22:49;9.00;;;4.18;;
66437;SDS011;54537;47.972;11.662;2023-06-26T09:25:19;8.30;;;4.20;;
66437;SDS011;54537;47.972;11.662;2023-06-26T09:27:48;6.93;;;4.15;;
66437;SDS011;54537;47.972;11.662;2023-06-26T09:30:16;6.53;;;3.90;;
66437;SDS011;54537;47.972;11.662;2023-06-26T09:32:43;6.25;;;4.20;;
66437;SDS011;54537;47.972;11.662;2023-06-26T09:35:10;6.28;;;4.32;;
66437;SDS011;54537;47.972;11.662;2023-06-26T09:37:36;7.80;;;4.13;;
66437;SDS011;54537;47.972;11.662;2023-06-26T09:40:03;7.97;;;4.25;;
66437;SDS011;54537;47.972;11.662;2023-06-26T09:42:33;7.55;;;4.43;;
66437;SDS011;54537;47.972;11.662;2023-06-26T09:44:59;5.82;;;4.10;;
66437;SDS011;54537;47.972;11.662;2023-06-26T09:47:26;6.00;;;4.07;;
66437;SDS011;54537;47.972;11.662;2023-06-26T09:49:56;6.18;;;3.90;;
66437;SDS011;54537;47.972;11.662;2023-06-26T09:52:25;6.10;;;3.63;;
66437;SDS011;54537;47.972;11.662;2023-06-26T09:54:55;9.05;;;3.95;;
66437;SDS011;54537;47.972;11.662;2023-06-26T09:57:35;6.80;;;3.28;;
66437;SDS011;54537;47.972;11.662;2023-06-26T10:00:02;7.57;;;3.95;;
66437;SDS011;54537;47.972;11.662;2023-06-26T10:02:29;7.75;;;4.22;;
66437;SDS011;54537;47.972;11.662;2023-06-26T10:04:55;6.50;;;3.80;;
66437;SDS011;54537;47.972;11.662;2023-06-26T10:07:22;5.25;;;3.65;;
66437;SDS011;54537;47.972;11.662;2023-06-26T10:09:48;7.82;;;3.60;;
66437;SDS011;54537;47.972;11.662;2023-06-26T10:12:18;5.20;;;3.40;;
66437;SDS011;54537;47.972;11.662;2023-06-26T10:14:47;7.28;;;3.58;;
66437;SDS011;54537;47.972;11.662;2023-06-26T10:17:16;6.05;;;3.70;;
66437;SDS011;54537;47.972;11.662;2023-06-26T10:19:46;5.70;;;3.72;;
66437;SDS011;54537;47.972;11.662;2023-06-26T10:22:15;7.88;;;3.90;;
66437;SDS011;54537;47.972;11.662;2023-06-26T10:24:43;6.53;;;3.95;;
66437;SDS011;54537;47.972;11.662;2023-06-26T10:27:14;8.70;;;4.00;;
66437;SDS011;54537;47.972;11.662;2023-06-26T10:29:42;5.72;;;3.72;;
66437;SDS011;54537;47.972;11.662;2023-06-26T10:32:10;5.47;;;3.47;;
66437;SDS011;54537;47.972;11.662;2023-06-26T10:34:37;6.10;;;3.85;;
66437;SDS011;54537;47.972;11.662;2023-06-26T10:37:04;6.47;;;3.70;;
66437;SDS011;54537;47.972;11.662;2023-06-26T10:39:45;6.78;;;3.97;;
66437;SDS011;54537;47.972;11.662;2023-06-26T10:42:13;11.02;;;3.92;;
66437;SDS011;54537;47.972;11.662;2023-06-26T10:44:40;5.00;;;3.47;;
66437;SDS011;54537;47.972;11.662;2023-06-26T10:47:07;5.38;;;3.40;;
66437;SDS011;54537;47.972;11.662;2023-06-26T10:49:35;5.60;;;3.65;;
66437;SDS011;54537;47.972;11.662;2023-06-26T10:52:04;6.55;;;3.65;;
66437;SDS011;54537;47.972;11.662;2023-06-26T10:54:31;7.10;;;4.03;;
66437;SDS011;54537;47.972;11.662;2023-06-26T10:56:58;5.68;;;3.63;;
66437;SDS011;54537;47.972;11.662;2023-06-26T10:59:25;6.53;;;3.78;;
66437;SDS011;54537;47.972;11.662;2023-06-26T11:01:56;5.75;;;3.55;;
66437;SDS011;54537;47.972;11.662;2023-06-26T11:04:37;6.72;;;3.40;;
66437;SDS011;54537;47.972;11.662;2023-06-26T11:07:14;5.90;;;3.47;;
66437;SDS011;54537;47.972;11.662;2023-06-26T11:09:53;5.18;;;3.67;;
66437;SDS011;54537;47.972;11.662;2023-06-26T11:12:33;5.28;;;3.30;;
66437;SDS011;54537;47.972;11.662;2023-06-26T11:15:00;6.30;;;3.60;;
66437;SDS011;54537;47.972;11.662;2023-06-26T11:17:27;6.05;;;3.60;;
66437;SDS011;54537;47.972;11.662;2023-06-26T11:19:55;5.13;;;3.17;;
66437;SDS011;54537;47.972;11.662;2023-06-26T11:22:22;4.75;;;3.38;;
66437;SDS011;54537;47.972;11.662;2023-06-26T11:24:49;6.53;;;3.90;;
66437;SDS011;54537;47.972;11.662;2023-06-26T11:27:19;6.65;;;3.60;;
66437;SDS011;54537;47.972;11.662;2023-06-26T11:29:48;6.57;;;3.63;;
66437;SDS011;54537;47.972;11.662;2023-06-26T11:32:15;5.40;;;3.53;;
66437;SDS011;54537;47.972;11.662;2023-06-26T11:34:42;5.38;;;3.58;;
66437;SDS011;54537;47.972;11.662;2023-06-26T11:37:10;6.32;;;3.85;;
66437;SDS011;54537;47.972;11.662;2023-06-26T11:39:37;6.13;;;3.70;;
66437;SDS011;54537;47.972;11.662;2023-06-26T11:42:04;6.90;;;3.75;;
66437;SDS011;54537;47.972;11.662;2023-06-26T11:44:31;6.05;;;3.90;;
66437;SDS011;54537;47.972;11.662;2023-06-26T11:46:57;7.43;;;3.53;;
66437;SDS011;54537;47.972;11.662;2023-06-26T11:49:24;5.90;;;3.75;;
66437;SDS011;54537;47.972;11.662;2023-06-26T11:51:52;5.82;;;3.83;;
66437;SDS011;54537;47.972;11.662;2023-06-26T11:54:27;6.03;;;3.90;;
66437;SDS011;54537;47.972;11.662;2023-06-26T11:56:54;6.13;;;4.00;;
66437;SDS011;54537;47.972;11.662;2023-06-26T11:59:26;6.70;;;3.85;;
66437;SDS011;54537;47.972;11.662;2023-06-26T12:01:59;7.90;;;4.10;;
66437;SDS011;54537;47.972;11.662;2023-06-26T12:04:25;8.00;;;3.88;;
66437;SDS011;54537;47.972;11.662;2023-06-26T12:06:52;6.40;;;4.00;;
66437;SDS011;54537;47.972;11.662;2023-06-26T12:09:22;7.05;;;4.10;;
66437;SDS011;54537;47.972;11.662;2023-06-26T12:11:51;6.13;;;3.83;;
66437;SDS011;54537;47.972;11.662;2023-06-26T12:14:19;6.90;;;4.20;;
66437;SDS011;54537;47.972;11.662;2023-06-26T12:16:46;6.88;;;4.35;;
66437;SDS011;54537;47.972;11.662;2023-06-26T12:19:12;7.13;;;4.03;;
66437;SDS011;54537;47.972;11.662;2023-06-26T12:21:46;7.15;;;4.35;;
66437;SDS011;54537;47.972;11.662;2023-06-26T12:24:16;6.85;;;4.03;;
66437;SDS011;54537;47.972;11.662;2023-06-26T12:26:43;9.05;;;4.32;;
66437;SDS011;54537;47.972;11.662;2023-06-26T12:29:12;6.53;;;4.10;;
66437;SDS011;54537;47.972;11.662;2023-06-26T12:31:40;6.82;;;4.03;;
66437;SDS011;54537;47.972;11.662;2023-06-26T12:34:08;6.03;;;3.92;;
66437;SDS011;54537;47.972;11.662;2023-06-26T12:36:39;6.50;;;4.22;;
66437;SDS011;54537;47.972;11.662;2023-06-26T12:39:05;6.35;;;4.28;;
66437;SDS011;54537;47.972;11.662;2023-06-26T12:41:32;7.20;;;4.40;;
66437;SDS011;54537;47.972;11.662;2023-06-26T12:43:58;6.68;;;3.83;;
66437;SDS011;54537;47.972;11.662;2023-06-26T12:46:34;8.05;;;3.80;;
66437;SDS011;54537;47.972;11.662;2023-06-26T12:49:01;7.35;;;4.22;;
66437;SDS011;54537;47.972;11.662;2023-06-26T12:51:28;6.32;;;4.10;;
66437;SDS011;54537;47.972;11.662;2023-06-26T12:53:54;6.00;;;4.00;;
66437;SDS011;54537;47.972;11.662;2023-06-26T12:56:21;8.43;;;4.57;;
66437;SDS011;54537;47.972;11.662;2023-06-26T12:58:47;9.68;;;4.32;;
66437;SDS011;54537;47.972;11.662;2023-06-26T13:01:14;6.63;;;4.57;;
66437;SDS011;54537;47.972;11.662;2023-06-26T13:03:41;9.05;;;4.80;;
66437;SDS011;54537;47.972;11.662;2023-06-26T13:06:08;7.15;;;4.15;;
66437;SDS011;54537;47.972;11.662;2023-06-26T13:08:35;6.97;;;4.43;;
66437;SDS011;54537;47.972;11.662;2023-06-26T13:11:01;8.13;;;4.22;;
66437;SDS011;54537;47.972;11.662;2023-06-26T13:13:28;9.68;;;4.28;;
66437;SDS011;54537;47.972;11.662;2023-06-26T13:15:54;7.38;;;4.60;;
66437;SDS011;54537;47.972;11.662;2023-06-26T13:18:21;6.88;;;4.25;;
66437;SDS011;54537;47.972;11.662;2023-06-26T13:20:49;10.45;;;4.80;;
66437;SDS011;54537;47.972;11.662;2023-06-26T13:23:15;7.10;;;4.55;;
66437;SDS011;54537;47.972;11.662;2023-06-26T13:25:43;8.68;;;4.95;;
66437;SDS011;54537;47.972;11.662;2023-06-26T13:28:10;8.68;;;4.22;;
66437;SDS011;54537;47.972;11.662;2023-06-26T13:30:36;8.77;;;4.57;;
66437;SDS011;54537;47.972;11.662;2023-06-26T13:33:03;9.38;;;4.22;;
66437;SDS011;54537;47.972;11.662;2023-06-26T13:35:29;8.07;;;4.38;;
66437;SDS011;54537;47.972;11.662;2023-06-26T13:37:57;9.68;;;5.05;;
66437;SDS011;54537;47.972;11.662;2023-06-26T13:40:23;8.57;;;4.93;;
66437;SDS011;54537;47.972;11.662;2023-06-26T13:42:50;10.55;;;4.97;;
66437;SDS011;54537;47.972;11.662;2023-06-26T13:45:16;9.95;;;4.85;;
66437;SDS011;54537;47.972;11.662;2023-06-26T13:47:43;8.55;;;5.00;;
66437;SDS011;54537;47.972;11.662;2023-06-26T13:50:09;9.30;;;4.95;;
66437;SDS011;54537;47.972;11.662;2023-06-26T13:52:36;7.80;;;5.00;;
66437;SDS011;54537;47.972;11.662;2023-06-26T13:55:04;10.10;;;5.20;;
66437;SDS011;54537;47.972;11.662;2023-06-26T13:57:31;9.40;;;5.18;;
66437;SDS011;54537;47.972;11.662;2023-06-26T13:59:58;9.00;;;5.18;;
66437;SDS011;54537;47.972;11.662;2023-06-26T14:02:25;8.98;;;5.07;;
66437;SDS011;54537;47.972;11.662;2023-06-26T14:04:52;10.25;;;5.30;;
66437;SDS011;54537;47.972;11.662;2023-06-26T14:07:18;8.15;;;5.15;;
66437;SDS011;54537;47.972;11.662;2023-06-26T14:09:45;8.70;;;5.32;;
66437;SDS011;54537;47.972;11.662;2023-06-26T14:12:12;8.95;;;5.40;;
66437;SDS011;54537;47.972;11.662;2023-06-26T14:14:39;12.25;;;5.35;;
66437;SDS011;54537;47.972;11.662;2023-06-26T14:17:05;8.32;;;5.18;;
66437;SDS011;54537;47.972;11.662;2023-06-26T14:19:34;8.10;;;5.18;;
66437;SDS011;54537;47.972;11.662;2023-06-26T14:22:00;8.45;;;4.85;;
66437;SDS011;54537;47.972;11.662;2023-06-26T14:24:27;8.63;;;5.35;;
66437;SDS011;54537;47.972;11.662;2023-06-26T14:26:53;8.15;;;5.10;;
66437;SDS011;54537;47.972;11.662;2023-06-26T14:29:21;8.98;;;5.15;;